TimeEDT,TemperatureF,Dew PointF,Humidity,Sea Level PressureIn,VisibilityMPH,Wind Direction,Wind SpeedMPH,Gust SpeedMPH,PrecipitationIn,Events,Conditions,WindDirDegrees,DateUTC
12:53 AM,77.0,75.0,94,29.99,8.0,WSW,3.5,-,0.00,,Clear,250,2013-07-26 04:53:00
1:53 AM,78.1,75.9,93,29.98,8.0,Calm,Calm,-,N/A,,Clear,0,2013-07-26 05:53:00
2:53 AM,79.0,77.0,94,29.99,8.0,Calm,Calm,-,N/A,,Mostly Cloudy,0,2013-07-26 06:53:00
3:04 AM,78.8,77.0,94,29.99,7.0,South,3.5,-,N/A,,Scattered Clouds,180,2013-07-26 07:04:00
3:53 AM,79.0,77.0,94,29.97,8.0,Calm,Calm,-,N/A,,Clear,0,2013-07-26 07:53:00
4:53 AM,78.1,75.0,90,29.96,10.0,NW,5.8,-,N/A,,Clear,320,2013-07-26 08:53:00
5:53 AM,78.1,75.0,90,29.98,10.0,WNW,4.6,-,N/A,,Clear,300,2013-07-26 09:53:00
6:53 AM,78.1,75.0,90,29.99,10.0,NW,4.6,-,N/A,,Clear,320,2013-07-26 10:53:00
7:53 AM,80.1,77.0,90,30.02,9.0,Calm,Calm,-,N/A,,Scattered Clouds,0,2013-07-26 11:53:00
8:53 AM,84.0,77.0,79,30.03,10.0,Variable,4.6,-,N/A,,Scattered Clouds,0,2013-07-26 12:53:00
9:53 AM,82.0,77.0,85,30.02,10.0,NW,15.0,-,N/A,Rain,Rain,310,2013-07-26 13:53:00
10:07 AM,77.0,73.4,89,30.03,3.0,WNW,8.1,-,0.06,Rain,Rain,300,2013-07-26 14:07:00
10:53 AM,82.9,73.9,74,30.03,10.0,West,4.6,-,0.07,,Partly Cloudy,260,2013-07-26 14:53:00
11:53 AM,87.1,77.0,72,30.03,10.0,NNW,4.6,-,N/A,,Clear,330,2013-07-26 15:53:00
12:53 PM,88.0,75.0,65,30.03,10.0,NW,9.2,-,N/A,,Scattered Clouds,320,2013-07-26 16:53:00
1:53 PM,89.1,75.9,65,30.02,10.0,NW,11.5,-,N/A,,Scattered Clouds,320,2013-07-26 17:53:00
2:45 PM,87.8,77.0,70,30.00,10.0,NW,15.0,-,N/A,Thunderstorm,Partly Cloudy,310,2013-07-26 18:45:00
2:53 PM,89.1,77.0,67,30.01,10.0,NNW,13.8,-,N/A,Thunderstorm,Thunderstorm,340,2013-07-26 18:53:00
3:07 PM,89.6,75.2,62,30.00,10.0,NNW,10.4,-,N/A,,Clear,340,2013-07-26 19:07:00
3:53 PM,88.0,75.9,67,30.00,10.0,ENE,3.5,-,N/A,,Clear,60,2013-07-26 19:53:00
4:53 PM,90.0,72.0,55,30.00,10.0,NNW,11.5,20.7,N/A,,Clear,330,2013-07-26 20:53:00
5:53 PM,89.1,75.0,63,29.99,10.0,NNW,9.2,-,N/A,,Clear,330,2013-07-26 21:53:00
6:53 PM,86.0,73.9,67,29.98,9.0,WNW,8.1,-,N/A,,Clear,300,2013-07-26 22:53:00
7:53 PM,84.0,75.0,74,29.98,10.0,WNW,9.2,-,N/A,,Clear,300,2013-07-26 23:53:00
8:53 PM,82.0,75.9,82,29.98,10.0,WNW,4.6,-,N/A,,Clear,290,2013-07-27 00:53:00
9:53 PM,82.0,77.0,85,30.01,10.0,Calm,Calm,-,N/A,,Clear,0,2013-07-27 01:53:00
10:53 PM,82.0,77.0,85,30.01,10.0,NNW,3.5,-,N/A,,Clear,340,2013-07-27 02:53:00
11:53 PM,81.0,77.0,88,30.01,10.0,Calm,Calm,-,N/A,,Partly Cloudy,0,2013-07-27 03:53:00